Time;durP1;ratioP1;P1;durP2;ratioP2;P2;SDS_P1;SDS_P2;PMS_P1;PMS_P2;Temp;Humidity;BMP_temperature;BMP_pressure;BME280_temperature;BME280_humidity;BME280_pressure;Samples;Min_cycle;Max_cycle;Signal;HPM_P1;HPM_P2
2023/04/05 00:01:25;;;;;;;4.57;2.75;;;3.20;86.00;;;;;;5013012;28;20617;-72
2023/04/05 00:03:53;;;;;;;3.13;2.13;;;3.00;87.80;;;;;;5007295;28;20099;-70
2023/04/05 00:06:26;;;;;;;4.32;2.50;;;3.00;85.90;;;;;;5017141;28;20731;-71
2023/04/05 00:08:55;;;;;;;3.53;2.20;;;3.00;85.10;;;;;;5010271;28;20037;-72
2023/04/05 00:11:21;;;;;;;3.22;2.05;;;3.10;85.70;;;;;;5007120;28;20682;-75
2023/04/05 00:13:48;;;;;;;2.78;2.10;;;2.90;85.90;;;;;;5016046;28;20030;-74
2023/04/05 00:16:15;;;;;;;10.23;6.60;;;2.70;86.60;;;;;;5013425;28;20721;-76
2023/04/05 00:18:48;;;;;;;10.25;5.22;;;2.70;87.90;;;;;;4994288;28;20108;-77
2023/04/05 00:21:15;;;;;;;6.38;3.60;;;2.70;87.80;;;;;;5014893;28;20113;-75
2023/04/05 00:23:43;;;;;;;4.30;2.88;;;2.80;87.40;;;;;;4995369;28;20056;-65
2023/04/05 00:26:12;;;;;;;2.33;1.80;;;2.80;87.80;;;;;;5010851;28;20033;-65
2023/04/05 00:28:38;;;;;;;3.42;2.22;;;2.80;88.00;;;;;;5004831;28;20045;-65
2023/04/05 00:31:04;;;;;;;4.15;2.55;;;2.70;88.60;;;;;;5010904;28;20530;-65
2023/04/05 00:33:30;;;;;;;3.95;2.17;;;2.70;87.60;;;;;;4993796;28;20132;-66
2023/04/05 00:35:56;;;;;;;3.03;1.88;;;2.80;87.20;;;;;;5001160;28;20044;-66
2023/04/05 00:38:21;;;;;;;5.53;2.60;;;2.80;87.30;;;;;;5004940;28;20061;-66
2023/04/05 00:40:47;;;;;;;2.42;1.80;;;2.80;88.10;;;;;;5008254;28;20043;-65
2023/04/05 00:43:13;;;;;;;2.22;1.83;;;2.70;87.50;;;;;;5012295;28;21263;-78
2023/04/05 00:45:39;;;;;;;3.72;2.08;;;2.70;87.40;;;;;;5014674;28;20529;-81
2023/04/05 00:48:05;;;;;;;1.98;1.42;;;2.70;87.90;;;;;;5008531;28;20033;-81
2023/04/05 00:50:31;;;;;;;2.72;1.77;;;2.70;87.10;;;;;;5003915;28;20152;-83
2023/04/05 00:52:57;;;;;;;2.63;1.80;;;2.60;87.50;;;;;;5005492;28;20041;-83
2023/04/05 00:55:25;;;;;;;4.47;2.03;;;2.70;87.70;;;;;;5006482;28;20324;-85
2023/04/05 00:57:54;;;;;;;3.53;2.17;;;2.60;89.80;;;;;;5007047;28;20041;-83
2023/04/05 01:00:21;;;;;;;3.90;2.15;;;2.60;91.20;;;;;;5002943;28;20034;-86
2023/04/05 01:03:02;;;;;;;4.50;2.70;;;2.50;91.20;;;;;;5002879;28;20026;-66
2023/04/05 01:05:39;;;;;;;3.67;2.40;;;2.50;90.50;;;;;;5001250;28;20081;-66
2023/04/05 01:08:11;;;;;;;4.40;2.63;;;2.50;90.70;;;;;;4998780;28;20556;-66
2023/04/05 01:10:41;;;;;;;5.40;3.28;;;2.40;91.10;;;;;;5003239;28;20119;-66
2023/04/05 01:13:07;;;;;;;3.53;2.47;;;2.40;91.20;;;;;;4992766;28;20907;-66
2023/04/05 01:15:33;;;;;;;3.88;2.45;;;2.40;90.60;;;;;;4999932;28;20037;-66
2023/04/05 01:18:00;;;;;;;4.82;2.17;;;2.50;90.30;;;;;;5007737;28;20068;-65
2023/04/05 01:20:31;;;;;;;5.03;2.72;;;2.40;91.30;;;;;;5006229;28;20389;-66
2023/04/05 01:23:15;;;;;;;3.25;1.98;;;2.40;91.60;;;;;;4997450;28;20029;-66
2023/04/05 01:25:58;;;;;;;2.72;1.88;;;2.30;91.90;;;;;;5005970;28;20046;-66
2023/04/05 01:28:43;;;;;;;4.07;2.35;;;2.30;92.20;;;;;;4986522;28;20037;-66
2023/04/05 01:31:33;;;;;;;5.60;2.85;;;2.30;91.90;;;;;;5002993;28;20053;-66
2023/04/05 01:34:31;;;;;;;5.40;2.70;;;2.30;91.20;;;;;;5008672;28;20788;-66
2023/04/05 01:37:02;;;;;;;3.00;2.47;;;2.40;91.90;;;;;;5007872;28;20656;-66
2023/04/05 01:39:30;;;;;;;4.30;2.75;;;2.40;91.30;;;;;;5002946;28;20189;-66
2023/04/05 01:42:00;;;;;;;4.72;2.55;;;2.40;91.20;;;;;;5007508;28;20045;-66
2023/04/05 01:44:26;;;;;;;4.35;2.38;;;2.30;91.10;;;;;;5002847;28;20033;-66
2023/04/05 01:46:52;;;;;;;3.25;2.50;;;2.40;90.80;;;;;;4999833;28;20034;-67
2023/04/05 01:49:17;;;;;;;3.17;2.25;;;2.40;90.80;;;;;;5002872;28;20116;-67
2023/04/05 01:51:43;;;;;;;4.35;2.20;;;2.50;91.60;;;;;;5007373;28;20060;-66
2023/04/05 01:54:09;;;;;;;3.38;2.00;;;2.40;92.40;;;;;;5003474;28;20034;-66
2023/04/05 01:56:34;;;;;;;5.13;2.72;;;2.30;92.90;;;;;;4986358;28;20037;-65
2023/04/05 01:59:00;;;;;;;3.25;2.25;;;2.20;92.60;;;;;;5006941;28;20104;-66
2023/04/05 02:01:26;;;;;;;3.65;2.60;;;2.20;92.80;;;;;;5006316;28;20029;-66
2023/04/05 02:03:51;;;;;;;3.78;2.63;;;2.20;92.40;;;;;;4999566;28;20033;-77
2023/04/05 02:06:17;;;;;;;3.35;2.50;;;2.20;92.50;;;;;;5012812;28;20329;-77
2023/04/05 02:08:43;;;;;;;5.35;2.65;;;2.20;92.90;;;;;;4997748;28;20037;-84
2023/04/05 02:11:09;;;;;;;4.53;2.80;;;2.20;92.80;;;;;;4999665;28;20037;-86
2023/04/05 02:13:35;;;;;;;4.72;2.83;;;2.30;93.00;;;;;;5004268;28;20036;-87
2023/04/05 02:16:00;;;;;;;4.05;2.83;;;2.30;92.40;;;;;;5011012;28;20061;-87
2023/04/05 02:18:30;;;;;;;7.60;2.78;;;2.30;92.40;;;;;;5006713;28;20048;-84
2023/04/05 02:21:06;;;;;;;2.78;2.30;;;2.20;92.40;;;;;;4996869;28;20045;-86
2023/04/05 02:23:33;;;;;;;3.53;2.47;;;2.20;92.00;;;;;;5007738;28;20119;-88
2023/04/05 02:26:00;;;;;;;3.25;2.58;;;2.20;92.50;;;;;;5012102;28;20046;-86
2023/04/05 02:28:26;;;;;;;5.40;4.15;;;2.20;92.10;;;;;;5008897;28;20140;-86
2023/04/05 02:30:51;;;;;;;4.90;3.17;;;2.20;92.90;;;;;;5006285;28;20115;-85
2023/04/05 02:33:17;;;;;;;4.47;2.40;;;2.20;92.20;;;;;;5001020;28;20501;-85
2023/04/05 02:35:43;;;;;;;6.38;3.22;;;2.10;91.90;;;;;;5012050;28;20029;-84
2023/04/05 02:38:09;;;;;;;6.05;3.25;;;2.20;92.00;;;;;;5006034;28;20036;-66
2023/04/05 02:40:35;;;;;;;2.72;2.35;;;2.20;92.80;;;;;;5010116;28;20021;-66
2023/04/05 02:43:01;;;;;;;5.22;3.15;;;2.10;92.70;;;;;;5008892;28;20103;-66
2023/04/05 02:45:26;;;;;;;5.40;3.80;;;2.00;92.80;;;;;;5003386;28;20089;-66
2023/04/05 02:47:53;;;;;;;5.03;3.58;;;2.00;92.80;;;;;;5004832;28;20036;-66
2023/04/05 02:50:19;;;;;;;5.57;3.45;;;2.00;92.70;;;;;;5005024;28;20033;-66
2023/04/05 02:52:48;;;;;;;4.03;2.83;;;2.00;91.90;;;;;;5000282;28;20050;-66
2023/04/05 02:55:15;;;;;;;4.82;2.53;;;2.00;92.70;;;;;;5009036;28;20116;-66
2023/04/05 02:57:42;;;;;;;5.43;3.53;;;2.00;93.70;;;;;;5005168;28;20062;-85
2023/04/05 03:00:10;;;;;;;7.57;3.78;;;1.90;94.20;;;;;;5002670;28;20026;-84
2023/04/05 03:02:37;;;;;;;7.93;4.57;;;1.90;92.90;;;;;;5001847;28;20028;-86
2023/04/05 03:05:03;;;;;;;6.40;3.50;;;1.90;92.60;;;;;;5004954;28;20034;-85
2023/04/05 03:07:29;;;;;;;8.80;3.85;;;1.80;92.90;;;;;;5007860;28;20042;-84
2023/04/05 03:09:55;;;;;;;6.90;3.53;;;1.80;92.60;;;;;;4998944;28;20091;-85
2023/04/05 03:12:21;;;;;;;6.80;3.40;;;1.80;92.40;;;;;;5005595;28;20049;-85
2023/04/05 03:14:47;;;;;;;6.03;3.53;;;1.80;92.70;;;;;;5005263;28;20052;-87
2023/04/05 03:17:13;;;;;;;5.32;3.70;;;1.80;92.10;;;;;;5006384;28;20696;-66
2023/04/05 03:19:38;;;;;;;6.22;3.28;;;1.70;92.10;;;;;;5001575;28;20120;-66
2023/04/05 03:22:04;;;;;;;7.53;3.95;;;1.80;92.00;;;;;;5006286;28;20394;-66
2023/04/05 03:24:30;;;;;;;7.22;4.28;;;1.70;92.30;;;;;;5008781;28;20068;-66
2023/04/05 03:27:01;;;;;;;5.75;3.25;;;1.70;92.40;;;;;;5012747;28;20408;-66
2023/04/05 03:29:26;;;;;;;7.93;4.30;;;1.70;93.10;;;;;;5003204;28;20096;-66
2023/04/05 03:31:52;;;;;;;6.55;3.78;;;1.60;93.00;;;;;;5001920;28;20049;-66
2023/04/05 03:34:18;;;;;;;5.88;4.20;;;1.60;93.80;;;;;;5009240;28;20568;-65
2023/04/05 03:36:44;;;;;;;7.05;4.07;;;1.60;92.90;;;;;;5015882;28;20786;-66
2023/04/05 03:39:11;;;;;;;6.05;3.08;;;1.60;94.00;;;;;;5008700;28;20232;-66
2023/04/05 03:41:38;;;;;;;4.82;3.60;;;1.50;94.60;;;;;;4998169;28;20199;-66
2023/04/05 03:44:04;;;;;;;6.20;3.78;;;1.40;95.50;;;;;;5013660;28;20504;-66
2023/04/05 03:46:31;;;;;;;9.55;3.90;;;1.40;94.00;;;;;;5009128;28;20061;-66
2023/04/05 03:48:58;;;;;;;4.13;2.85;;;1.40;93.60;;;;;;5020163;28;20036;-65
2023/04/05 03:51:23;;;;;;;6.50;3.90;;;1.40;96.00;;;;;;5011124;28;20053;-66
2023/04/05 03:53:50;;;;;;;7.35;3.50;;;1.40;94.00;;;;;;5010331;28;20104;-89
2023/04/05 03:56:16;;;;;;;4.65;3.25;;;1.40;94.00;;;;;;5008945;28;20033;-88
2023/04/05 03:58:42;;;;;;;7.93;3.38;;;1.30;95.20;;;;;;5010788;28;20738;-86
2023/04/05 04:01:08;;;;;;;3.63;2.65;;;1.30;94.30;;;;;;5003875;28;20025;-88
2023/04/05 04:03:36;;;;;;;6.38;3.53;;;1.30;95.90;;;;;;5001488;28;20049;-88
2023/04/05 04:06:05;;;;;;;4.05;2.83;;;1.30;95.30;;;;;;4997066;28;20030;-86
2023/04/05 04:08:31;;;;;;;4.15;3.03;;;1.20;96.30;;;;;;5008186;28;20390;-88
2023/04/05 04:10:57;;;;;;;4.40;2.92;;;1.10;96.50;;;;;;5005122;28;20069;-88
2023/04/05 04:13:23;;;;;;;6.88;3.45;;;1.10;96.50;;;;;;4997539;28;20668;-88
2023/04/05 04:15:48;;;;;;;6.03;2.55;;;1.10;96.90;;;;;;5002024;28;20493;-88
2023/04/05 04:18:14;;;;;;;5.30;3.30;;;1.00;96.00;;;;;;5006291;28;20038;-88
2023/04/05 04:20:40;;;;;;;8.00;4.03;;;1.00;96.20;;;;;;5008295;28;20056;-87
2023/04/05 04:23:09;;;;;;;7.43;3.70;;;1.10;96.40;;;;;;5006818;28;20061;-88
2023/04/05 04:25:36;;;;;;;7.60;4.22;;;1.10;96.50;;;;;;5009000;28;20034;-89
2023/04/05 04:28:06;;;;;;;32.95;18.88;;;1.20;96.50;;;;;;5009747;28;20041;-89
2023/04/05 04:30:33;;;;;;;23.45;13.90;;;1.10;96.10;;;;;;5011720;28;20871;-88
2023/04/05 04:33:01;;;;;;;24.40;11.65;;;1.20;96.20;;;;;;4993323;28;20037;-85
2023/04/05 04:35:28;;;;;;;22.88;11.82;;;1.20;96.10;;;;;;4996411;28;20037;-88
2023/04/05 04:38:05;;;;;;;28.05;11.30;;;1.20;95.60;;;;;;5003397;28;20042;-88
2023/04/05 04:40:37;;;;;;;64.90;22.50;;;1.20;97.00;;;;;;5008728;28;20033;-87
2023/04/05 04:43:08;;;;;;;;;;;1.10;97.30;;;;;;4993372;28;20111;-87
2023/04/05 04:45:36;;;;;;;206.95;71.28;;;1.00;97.20;;;;;;4998390;28;19963;-77
2023/04/05 04:48:03;;;;;;;105.95;39.67;;;1.00;97.20;;;;;;4988940;28;20033;-79
2023/04/05 04:50:30;;;;;;;21.73;11.52;;;0.90;98.00;;;;;;5003806;28;20033;-66
2023/04/05 04:52:58;;;;;;;69.70;26.58;;;0.80;98.00;;;;;;5002245;28;20053;-66
2023/04/05 04:55:24;;;;;;;99.55;33.80;;;0.70;98.20;;;;;;5004419;28;20052;-66
2023/04/05 04:57:54;;;;;;;17.08;9.07;;;0.70;99.00;;;;;;4977928;28;20099;-66
2023/04/05 05:00:21;;;;;;;13.52;7.40;;;0.70;99.80;;;;;;4997607;28;20104;-65
2023/04/05 05:02:47;;;;;;;15.32;8.10;;;0.70;99.10;;;;;;4997859;28;20034;-65
2023/04/05 05:05:13;;;;;;;13.27;6.72;;;0.70;98.80;;;;;;5001117;28;20041;-65
2023/04/05 05:07:41;;;;;;;18.23;7.93;;;0.60;98.70;;;;;;4981664;28;20033;-65
2023/04/05 05:10:08;;;;;;;19.60;9.18;;;0.70;98.50;;;;;;4998120;28;20034;-66
2023/04/05 05:12:34;;;;;;;20.35;9.82;;;0.80;98.40;;;;;;4997086;28;20038;-65
2023/04/05 05:15:00;;;;;;;25.33;12.85;;;1.00;98.40;;;;;;4981291;28;20065;-65
2023/04/05 05:17:25;;;;;;;31.25;11.77;;;1.10;98.40;;;;;;4986841;28;20046;-66
2023/04/05 05:19:51;;;;;;;24.90;11.90;;;1.20;98.80;;;;;;4998643;28;20116;-66
2023/04/05 05:22:17;;;;;;;29.88;10.88;;;1.30;98.50;;;;;;4992171;28;20140;-65
2023/04/05 05:24:46;;;;;;;28.27;12.15;;;1.40;98.90;;;;;;4993984;28;20048;-66
2023/04/05 05:27:12;;;;;;;20.52;11.38;;;1.60;98.60;;;;;;4993937;28;20044;-66
2023/04/05 05:29:38;;;;;;;28.67;12.65;;;1.80;97.90;;;;;;4997534;28;20454;-79
2023/04/05 05:32:04;;;;;;;25.45;12.93;;;1.80;97.30;;;;;;4999032;28;20107;-83
2023/04/05 05:34:29;;;;;;;35.55;12.15;;;1.90;97.20;;;;;;4997678;28;20421;-81
2023/04/05 05:36:55;;;;;;;28.08;13.07;;;2.10;96.70;;;;;;4987835;28;20128;-83
2023/04/05 05:39:22;;;;;;;25.13;10.88;;;2.20;96.50;;;;;;4997715;28;20038;-83
2023/04/05 05:41:48;;;;;;;23.25;9.50;;;2.40;95.60;;;;;;5005623;28;20040;-83
2023/04/05 05:44:13;;;;;;;16.05;9.00;;;2.50;95.50;;;;;;5004997;28;20037;-83
2023/04/05 05:46:39;;;;;;;15.75;8.73;;;2.60;96.30;;;;;;5007556;28;20021;-84
2023/04/05 05:49:05;;;;;;;16.27;8.27;;;2.80;95.90;;;;;;5017467;28;20486;-83
2023/04/05 05:51:31;;;;;;;14.70;7.97;;;2.80;94.40;;;;;;4998350;28;20049;-83
2023/04/05 05:53:57;;;;;;;14.80;7.60;;;3.10;94.00;;;;;;5016904;28;20053;-84
2023/04/05 05:56:22;;;;;;;16.42;7.32;;;3.20;94.00;;;;;;5004505;28;20032;-85
2023/04/05 05:58:48;;;;;;;12.10;6.25;;;3.20;93.70;;;;;;5012919;28;20121;-84
2023/04/05 06:01:14;;;;;;;7.32;4.05;;;3.40;93.50;;;;;;5011144;28;20081;-84
2023/04/05 06:03:40;;;;;;;4.82;2.65;;;3.60;92.70;;;;;;5015614;28;20037;-85
2023/04/05 06:06:07;;;;;;;2.65;2.15;;;3.70;92.00;;;;;;5017969;28;20029;-86
2023/04/05 06:08:33;;;;;;;3.03;2.08;;;3.90;91.30;;;;;;5011799;28;20148;-89
2023/04/05 06:10:59;;;;;;;2.10;1.73;;;4.00;90.20;;;;;;5002101;28;20056;-90
2023/04/05 06:13:25;;;;;;;4.10;2.05;;;4.10;88.60;;;;;;5017240;28;20046;-92
2023/04/05 06:15:50;;;;;;;4.38;2.10;;;4.20;86.70;;;;;;5019853;28;20498;-92
2023/04/05 06:18:16;;;;;;;3.63;1.73;;;4.20;87.70;;;;;;5024492;28;20042;-90
2023/04/05 06:20:43;;;;;;;2.83;1.67;;;4.30;85.90;;;;;;5025748;28;20044;-91
2023/04/05 06:23:12;;;;;;;4.25;1.83;;;4.40;83.50;;;;;;5026654;28;20036;-91
2023/04/05 06:25:38;;;;;;;3.05;1.65;;;4.40;82.20;;;;;;5025717;28;20529;-87
2023/04/05 06:28:05;;;;;;;2.53;2.00;;;4.60;83.20;;;;;;5010925;28;20041;-84
2023/04/05 06:30:32;;;;;;;3.65;2.10;;;4.70;83.30;;;;;;5007376;28;20037;-67
2023/04/05 06:32:58;;;;;;;2.85;1.80;;;4.80;82.70;;;;;;5009705;28;20037;-66
2023/04/05 06:35:24;;;;;;;4.95;2.10;;;4.90;81.10;;;;;;5004521;28;20037;-67
2023/04/05 06:37:51;;;;;;;2.65;1.70;;;5.00;80.60;;;;;;5003672;28;20047;-67
2023/04/05 06:40:17;;;;;;;3.28;1.65;;;5.20;80.60;;;;;;5009839;28;20061;-67
2023/04/05 06:42:43;;;;;;;3.60;2.22;;;5.30;78.00;;;;;;5006817;28;20091;-67
2023/04/05 06:45:10;;;;;;;3.45;1.75;;;5.40;77.20;;;;;;5011123;28;20041;-67
2023/04/05 06:47:37;;;;;;;4.00;1.90;;;5.40;77.20;;;;;;5013773;28;20658;-67
2023/04/05 06:50:05;;;;;;;4.60;3.33;;;5.40;79.30;;;;;;5000726;28;20029;-67
2023/04/05 06:52:32;;;;;;;2.67;1.67;;;5.50;77.50;;;;;;5019577;28;20053;-67
2023/04/05 06:54:58;;;;;;;3.40;1.88;;;5.50;75.40;;;;;;5007812;28;20139;-67
2023/04/05 06:57:24;;;;;;;2.88;1.95;;;5.60;74.20;;;;;;4998464;28;20707;-67
2023/04/05 06:59:51;;;;;;;3.85;2.13;;;5.60;73.60;;;;;;5016837;28;20123;-67
2023/04/05 07:02:17;;;;;;;3.00;1.98;;;5.60;74.70;;;;;;5010059;28;20041;-68
2023/04/05 07:04:43;;;;;;;3.58;2.25;;;5.80;75.10;;;;;;5015897;28;20041;-68
2023/04/05 07:07:09;;;;;;;4.82;1.83;;;5.90;72.60;;;;;;5004015;28;20038;-68
2023/04/05 07:09:36;;;;;;;4.28;1.73;;;5.90;71.70;;;;;;5009935;28;20080;-68
2023/04/05 07:12:03;;;;;;;2.53;1.83;;;5.90;71.90;;;;;;5009112;28;20422;-68
2023/04/05 07:14:33;;;;;;;3.25;1.75;;;6.00;73.30;;;;;;5011251;28;20030;-68
2023/04/05 07:16:59;;;;;;;3.70;2.00;;;6.00;72.50;;;;;;5009622;28;20453;-68
2023/04/05 07:19:25;;;;;;;3.17;1.90;;;6.00;73.50;;;;;;5005220;28;20037;-68
2023/04/05 07:21:51;;;;;;;3.25;1.80;;;6.10;72.60;;;;;;5006419;28;20045;-68
2023/04/05 07:24:17;;;;;;;3.90;2.17;;;6.20;72.00;;;;;;4995184;28;20125;-68
2023/04/05 07:26:43;;;;;;;2.80;2.00;;;6.30;70.60;;;;;;5006582;28;20362;-68
2023/04/05 07:29:10;;;;;;;3.05;2.08;;;6.30;70.80;;;;;;5006534;28;21072;-68
2023/04/05 07:31:36;;;;;;;3.75;2.40;;;6.40;70.10;;;;;;5010996;28;20136;-68
2023/04/05 07:34:02;;;;;;;3.33;2.03;;;6.50;70.30;;;;;;4994907;28;20049;-67
2023/04/05 07:36:29;;;;;;;5.30;2.30;;;6.40;70.40;;;;;;4984888;28;20033;-68
2023/04/05 07:38:56;;;;;;;2.45;2.08;;;6.40;72.60;;;;;;5008321;28;20497;-67
2023/04/05 07:41:23;;;;;;;3.05;2.40;;;6.40;71.90;;;;;;4995383;28;20180;-67
2023/04/05 07:43:49;;;;;;;4.38;2.42;;;6.60;72.10;;;;;;5005285;28;20748;-68
2023/04/05 07:46:15;;;;;;;5.32;2.35;;;6.70;72.70;;;;;;5009079;28;20037;-68
2023/04/05 07:48:40;;;;;;;3.40;2.13;;;6.80;71.20;;;;;;5011298;28;20053;-68
2023/04/05 07:51:07;;;;;;;2.75;1.75;;;7.00;70.70;;;;;;5012144;28;20042;-68
2023/04/05 07:53:34;;;;;;;3.97;2.25;;;7.20;71.50;;;;;;5009081;28;20137;-68
2023/04/05 07:56:04;;;;;;;4.57;2.60;;;7.40;71.40;;;;;;4997469;28;20563;-68
2023/04/05 07:58:31;;;;;;;3.55;2.95;;;7.50;68.90;;;;;;5007534;28;20124;-68
2023/04/05 08:01:00;;;;;;;3.05;2.50;;;7.40;69.20;;;;;;5006558;28;20129;-68
2023/04/05 08:03:26;;;;;;;4.15;2.35;;;7.30;68.00;;;;;;5012043;28;20052;-68
2023/04/05 08:05:52;;;;;;;4.10;2.53;;;7.40;69.10;;;;;;5012722;28;20033;-66
2023/04/05 08:08:17;;;;;;;4.05;2.53;;;7.50;68.90;;;;;;5003513;28;20044;-65
2023/04/05 08:10:43;;;;;;;3.95;2.40;;;7.60;69.30;;;;;;5012896;28;20045;-66
2023/04/05 08:13:09;;;;;;;4.40;2.70;;;7.70;70.40;;;;;;5015669;28;20046;-65
2023/04/05 08:15:35;;;;;;;8.95;2.95;;;7.80;69.60;;;;;;5000867;28;20213;-66
2023/04/05 08:18:00;;;;;;;6.40;2.55;;;7.70;68.70;;;;;;5014400;28;20071;-66
2023/04/05 08:20:26;;;;;;;3.45;2.30;;;7.80;68.60;;;;;;5007506;28;20575;-84
2023/04/05 08:22:52;;;;;;;4.43;2.70;;;7.90;68.00;;;;;;5016366;28;20030;-81
2023/04/05 08:25:17;;;;;;;3.97;2.22;;;7.90;65.90;;;;;;5008032;28;20936;-85
2023/04/05 08:27:43;;;;;;;4.72;2.50;;;7.90;66.50;;;;;;5007433;28;20037;-83
2023/04/05 08:30:09;;;;;;;4.03;2.50;;;7.90;65.80;;;;;;5011263;28;20026;-83
2023/04/05 08:32:35;;;;;;;3.78;2.20;;;8.00;65.50;;;;;;5012304;28;20053;-86
2023/04/05 08:35:00;;;;;;;4.97;2.38;;;7.90;62.80;;;;;;5014280;28;20033;-88
2023/04/05 08:37:26;;;;;;;3.75;2.70;;;7.70;62.80;;;;;;5010457;28;20046;-86
2023/04/05 08:39:52;;;;;;;3.75;2.22;;;7.80;64.20;;;;;;5016268;28;20033;-83
2023/04/05 08:42:28;;;;;;;3.40;2.30;;;7.90;64.70;;;;;;5010222;28;20123;-87
2023/04/05 08:44:58;;;;;;;2.67;2.17;;;7.80;64.90;;;;;;5012689;28;20049;-81
2023/04/05 08:47:24;;;;;;;8.65;5.00;;;7.90;63.50;;;;;;5008378;28;20511;-82
2023/04/05 08:49:50;;;;;;;5.35;2.65;;;8.10;65.00;;;;;;5011302;28;20042;-81
2023/04/05 08:52:17;;;;;;;4.18;2.60;;;8.10;64.50;;;;;;4999431;28;20054;-82
2023/04/05 08:54:42;;;;;;;2.83;2.45;;;8.10;66.60;;;;;;5011847;28;20025;-82
2023/04/05 08:57:09;;;;;;;5.03;2.50;;;8.20;66.60;;;;;;5014598;28;20036;-82
2023/04/05 08:59:41;;;;;;;2.85;2.55;;;8.30;64.40;;;;;;4998229;28;20037;-66
2023/04/05 09:02:25;;;;;;;4.55;2.53;;;8.30;63.20;;;;;;5015838;28;20046;-67
2023/04/05 09:04:52;;;;;;;3.65;2.58;;;8.40;60.10;;;;;;5019297;28;20022;-66
2023/04/05 09:07:19;;;;;;;4.47;2.40;;;8.40;61.00;;;;;;5011610;28;20033;-66
2023/04/05 09:09:52;;;;;;;3.75;2.38;;;8.30;63.70;;;;;;5005142;28;20529;-66
2023/04/05 09:12:21;;;;;;;3.83;2.53;;;8.30;64.80;;;;;;5012080;28;20053;-66
2023/04/05 09:14:49;;;;;;;2.95;1.73;;;8.40;62.60;;;;;;5010262;28;20490;-66
2023/04/05 09:17:17;;;;;;;6.65;2.78;;;8.50;61.10;;;;;;5011273;28;20037;-66
2023/04/05 09:19:44;;;;;;;3.38;1.92;;;8.50;58.10;;;;;;5014124;28;20025;-66
2023/04/05 09:22:10;;;;;;;8.35;3.53;;;8.50;57.00;;;;;;5006413;28;20128;-66
2023/04/05 09:24:40;;;;;;;4.10;3.03;;;8.50;56.80;;;;;;5014452;28;20599;-66
2023/04/05 09:27:12;;;;;;;6.63;2.60;;;8.60;57.40;;;;;;5013557;28;20092;-66
2023/04/05 09:29:39;;;;;;;;;;;8.60;56.10;;;;;;5013537;28;20499;-66
2023/04/05 09:32:08;;;;;;;3.65;2.53;;;8.60;58.00;;;;;;5013272;28;19932;-66
2023/04/05 09:34:38;;;;;;;2.50;2.05;;;8.70;58.20;;;;;;5014631;28;20033;-66
2023/04/05 09:37:18;;;;;;;9.02;3.70;;;8.70;59.20;;;;;;5015840;28;20041;-66
2023/04/05 09:39:45;;;;;;;14.15;6.63;;;8.80;57.00;;;;;;5012326;28;20060;-66
2023/04/05 09:42:14;;;;;;;4.72;2.53;;;8.80;60.20;;;;;;5006538;28;21157;-66
2023/04/05 09:45:01;;;;;;;1.60;1.50;;;8.90;57.00;;;;;;5007933;28;20115;-66
2023/04/05 09:47:31;;;;;;;5.65;3.00;;;9.00;53.60;;;;;;5012763;28;20026;-66
2023/04/05 09:50:05;;;;;;;6.05;3.05;;;9.00;51.60;;;;;;5012839;28;20041;-66
2023/04/05 09:52:31;;;;;;;3.13;1.70;;;9.00;55.70;;;;;;4996093;28;20057;-66
2023/04/05 09:54:59;;;;;;;9.65;4.82;;;9.00;53.10;;;;;;4988650;28;20638;-67
2023/04/05 09:57:26;;;;;;;2.80;2.10;;;8.90;52.30;;;;;;4982616;28;20038;-66
2023/04/05 09:59:53;;;;;;;4.03;2.05;;;8.80;53.00;;;;;;4989446;28;20042;-67
2023/04/05 10:02:20;;;;;;;2.85;1.80;;;8.90;54.80;;;;;;4992159;28;20068;-67
2023/04/05 10:04:47;;;;;;;2.92;2.05;;;8.90;53.80;;;;;;4990803;28;20124;-66
2023/04/05 10:07:17;;;;;;;2.83;1.90;;;9.00;53.00;;;;;;4980102;28;20120;-66
2023/04/05 10:09:45;;;;;;;4.38;2.30;;;9.00;55.10;;;;;;4979879;28;20153;-66
2023/04/05 10:12:40;;;;;;;5.78;2.58;;;9.20;55.70;;;;;;4991076;28;21232;-67
2023/04/05 10:15:09;;;;;;;3.47;1.85;;;9.40;54.30;;;;;;4978765;28;20999;-86
2023/04/05 10:17:48;;;;;;;2.45;1.92;;;9.50;54.10;;;;;;4976718;28;20053;-85
2023/04/05 10:20:21;;;;;;;2.58;1.80;;;9.60;51.90;;;;;;4988134;28;20514;-87
2023/04/05 10:23:02;;;;;;;6.63;2.45;;;9.50;52.70;;;;;;4984128;28;20051;-87
2023/04/05 10:25:48;;;;;;;3.47;2.10;;;9.30;53.80;;;;;;4992497;28;20055;-85
2023/04/05 10:28:31;;;;;;;5.07;3.03;;;9.30;53.40;;;;;;4992768;28;20050;-85
2023/04/05 10:31:09;;;;;;;3.05;1.98;;;9.40;53.60;;;;;;4968469;28;20059;-82
2023/04/05 10:33:44;;;;;;;5.80;2.78;;;9.70;53.90;;;;;;4994146;28;20038;-66
2023/04/05 10:36:15;;;;;;;3.55;1.85;;;9.60;52.40;;;;;;4992216;28;20510;-67
2023/04/05 10:38:56;;;;;;;4.38;2.25;;;9.60;53.10;;;;;;4983777;28;20042;-66
2023/04/05 10:41:21;;;;;;;3.67;2.35;;;9.70;54.20;;;;;;4981440;28;20040;-66
2023/04/05 10:43:48;;;;;;;3.28;2.05;;;9.80;53.30;;;;;;4989258;28;20034;-66
2023/04/05 10:46:20;;;;;;;2.97;1.88;;;9.80;55.00;;;;;;4989146;28;20049;-65
2023/04/05 10:49:00;;;;;;;4.03;2.60;;;9.90;52.90;;;;;;4989320;28;20822;-66
2023/04/05 10:51:28;;;;;;;3.17;1.98;;;9.80;53.50;;;;;;4991906;28;20061;-67
2023/04/05 10:53:55;;;;;;;2.67;2.08;;;9.60;52.50;;;;;;4996158;28;20726;-67
2023/04/05 10:56:21;;;;;;;1.92;1.70;;;9.60;54.70;;;;;;4988578;28;20751;-68
2023/04/05 10:58:49;;;;;;;3.20;1.90;;;9.80;53.10;;;;;;4984588;28;20026;-67
2023/04/05 11:01:16;;;;;;;5.50;2.00;;;9.90;52.00;;;;;;4979375;28;20030;-66
2023/04/05 11:03:47;;;;;;;2.30;2.10;;;10.00;51.20;;;;;;4986095;28;20037;-67
2023/04/05 11:06:24;;;;;;;3.90;2.17;;;10.10;49.60;;;;;;4992600;28;20030;-66
2023/04/05 11:08:53;;;;;;;3.70;2.00;;;10.00;49.00;;;;;;4989559;28;20030;-66
2023/04/05 11:11:22;;;;;;;2.10;1.90;;;9.90;51.50;;;;;;4990574;28;20054;-66
2023/04/05 11:13:55;;;;;;;4.40;2.58;;;10.00;51.90;;;;;;4992645;28;20038;-86
2023/04/05 11:16:22;;;;;;;3.08;2.00;;;10.20;53.50;;;;;;4981861;28;20358;-80
2023/04/05 11:18:50;;;;;;;3.50;2.13;;;10.20;52.00;;;;;;4991619;28;20129;-80
2023/04/05 11:21:21;;;;;;;3.15;2.28;;;10.30;52.30;;;;;;4989490;28;20038;-84
2023/04/05 11:24:08;;;;;;;2.88;2.15;;;10.30;50.90;;;;;;4984576;28;20128;-82
2023/04/05 11:26:39;;;;;;;4.28;3.03;;;10.40;51.70;;;;;;4990731;28;20053;-80
2023/04/05 11:29:09;;;;;;;48.80;23.83;;;10.50;49.70;;;;;;4980516;28;20026;-81
2023/04/05 11:31:35;;;;;;;4.70;3.15;;;10.40;50.70;;;;;;4962726;28;20042;-86
2023/04/05 11:34:11;;;;;;;3.92;2.28;;;10.30;52.10;;;;;;4987236;28;20445;-84
2023/04/05 11:46:43;;;;;;;3.83;2.40;;;10.50;54.40;;;;;;5165398;23;20051;-75
2023/04/05 11:49:09;;;;;;;2.92;2.25;;;10.30;50.40;;;;;;4918492;28;20692;-73
2023/04/05 11:51:35;;;;;;;3.38;2.60;;;10.30;51.40;;;;;;4974458;28;20053;-73
2023/04/05 11:54:01;;;;;;;2.95;2.42;;;10.50;53.20;;;;;;4974174;28;20041;-73
2023/04/05 11:56:26;;;;;;;13.70;3.15;;;10.70;51.30;;;;;;4977917;28;20025;-76
2023/04/05 11:58:57;;;;;;;5.25;3.20;;;10.80;51.50;;;;;;4967818;28;20030;-75
2023/04/05 12:01:22;;;;;;;11.98;8.25;;;11.00;50.30;;;;;;4983072;28;20306;-75
2023/04/05 12:03:54;;;;;;;6.30;3.28;;;10.90;52.30;;;;;;4975571;28;20609;-75
2023/04/05 12:06:22;;;;;;;312.63;188.15;;;10.70;51.20;;;;;;4971135;28;20099;-74
2023/04/05 12:08:55;;;;;;;86.35;53.65;;;10.70;51.80;;;;;;4966131;28;20022;-74
2023/04/05 12:11:31;;;;;;;9.13;5.47;;;10.70;52.10;;;;;;4974208;28;20118;-74
2023/04/05 12:13:58;;;;;;;9.60;3.08;;;10.90;51.30;;;;;;4974958;28;20126;-75
2023/04/05 12:16:24;;;;;;;32.67;24.42;;;11.00;50.10;;;;;;4977972;28;20189;-75
2023/04/05 12:18:57;;;;;;;73.57;44.15;;;11.00;48.40;;;;;;4985945;28;20572;-75
2023/04/05 12:21:25;;;;;;;6.72;4.65;;;11.10;50.00;;;;;;4977363;28;20046;-76
2023/04/05 12:23:51;;;;;;;3.55;2.90;;;11.20;50.30;;;;;;4982471;28;20061;-74
2023/04/05 12:26:17;;;;;;;54.30;31.70;;;11.30;50.60;;;;;;4985759;28;20049;-73
2023/04/05 12:29:02;;;;;;;6.00;4.53;;;11.20;51.60;;;;;;4989894;28;20052;-74
2023/04/05 12:31:37;;;;;;;14.20;9.07;;;11.20;47.80;;;;;;4984810;28;20066;-74
2023/04/05 12:34:03;;;;;;;6.18;4.13;;;11.20;49.60;;;;;;4982769;28;20568;-73
2023/04/05 12:36:32;;;;;;;5.53;3.30;;;11.20;49.60;;;;;;4982776;28;20027;-76
2023/04/05 12:38:58;;;;;;;4.53;3.25;;;11.30;48.80;;;;;;4975645;28;20038;-74
2023/04/05 12:41:31;;;;;;;3.95;2.40;;;11.20;46.10;;;;;;4978835;28;20034;-72
2023/04/05 12:44:00;;;;;;;6.47;2.40;;;11.00;48.70;;;;;;4970367;28;20038;-74
2023/04/05 12:46:39;;;;;;;3.17;2.67;;;11.00;49.30;;;;;;4976646;28;20045;-73
2023/04/05 12:49:05;;;;;;;5.78;2.92;;;11.00;50.80;;;;;;4983212;28;20027;-74
2023/04/05 12:51:31;;;;;;;2.45;2.25;;;11.30;52.20;;;;;;4979521;28;23273;-78
2023/04/05 12:54:00;;;;;;;3.35;2.45;;;11.40;50.60;;;;;;4983941;28;20073;-76
2023/04/05 12:56:28;;;;;;;2.95;2.08;;;11.30;48.70;;;;;;4983709;28;20086;-76
2023/04/05 12:58:54;;;;;;;2.95;1.90;;;11.30;49.90;;;;;;4988397;28;20457;-75
2023/04/05 13:01:19;;;;;;;2.10;1.60;;;11.30;50.40;;;;;;4987746;28;20534;-76
2023/04/05 13:03:46;;;;;;;2.42;1.70;;;11.50;49.60;;;;;;4991533;28;20042;-74
2023/04/05 13:06:12;;;;;;;3.63;2.22;;;11.40;46.80;;;;;;4979157;28;20042;-74
2023/04/05 13:08:37;;;;;;;4.28;2.85;;;11.50;48.30;;;;;;4984659;28;20121;-75